Time;durP1;ratioP1;P1;durP2;ratioP2;P2;SDS_P1;SDS_P2;PMS_P1;PMS_P2;Temp;Humidity;BMP_temperature;BMP_pressure;BME280_temperature;BME280_humidity;BME280_pressure;Samples;Min_cycle;Max_cycle;Signal;HPM_P1;HPM_P2
2021/05/23 00:00:39;;;;;;;;;25.00;18.75;;;;;10.28;93.93;99486.69;3597491;39;14045;-55
2021/05/23 00:03:15;;;;;;;;;21.50;16.50;;;;;10.35;93.99;99491.66;3596840;39;14753;-54
2021/05/23 00:05:45;;;;;;;;;22.75;16.75;;;;;10.01;94.35;99483.03;3599202;39;14033;-54
2021/05/23 00:08:16;;;;;;;;;24.50;18.00;;;;;9.78;95.46;99482.66;3597142;39;14042;-54
2021/05/23 00:10:52;;;;;;;;;16.25;15.00;;;;;10.10;95.58;99482.47;3600540;39;14065;-53
2021/05/23 00:13:25;;;;;;;;;21.50;17.00;;;;;10.39;94.52;99482.47;3595715;39;14039;-53
2021/05/23 00:16:22;;;;;;;;;17.50;13.00;;;;;9.84;95.78;99487.63;3598318;39;14526;-55
2021/05/23 00:18:53;;;;;;;;;23.33;18.67;;;;;9.81;96.52;99490.50;3596996;39;10239;-53
2021/05/23 00:21:26;;;;;;;;;20.50;17.50;;;;;10.01;96.43;99500.00;3597133;39;10727;-53
2021/05/23 00:23:54;;;;;;;;;22.00;16.50;;;;;10.24;95.16;99495.88;3596718;39;14127;-55
2021/05/23 00:26:25;;;;;;;;;17.00;17.00;;;;;9.82;95.72;99494.91;3600180;39;10586;-55
2021/05/23 00:28:53;;;;;;;;;17.00;13.00;;;;;9.80;96.62;99482.56;3596708;39;14602;-54
2021/05/23 00:31:28;;;;;;;;;19.00;17.75;;;;;9.97;96.51;99478.81;3596843;40;14033;-53
2021/05/23 00:33:57;;;;;;;;;13.25;12.50;;;;;9.72;96.27;99488.41;3598343;39;14012;-55
2021/05/23 00:36:25;;;;;;;;;19.50;16.75;;;;;9.82;97.24;99489.56;3596969;39;11337;-54
2021/05/23 00:38:53;;;;;;;;;17.25;16.75;;;;;10.02;95.67;99484.75;3596811;40;14214;-54
2021/05/23 00:41:22;;;;;;;;;19.75;16.75;;;;;9.59;97.13;99479.38;3595836;40;14057;-54
2021/05/23 00:43:49;;;;;;;;;17.00;12.00;;;;;9.59;97.34;99476.69;3596324;39;10599;-54
2021/05/23 00:46:16;;;;;;;;;11.75;10.75;;;;;9.63;96.86;99483.56;3596903;39;14517;-54
2021/05/23 00:48:44;;;;;;;;;15.50;12.75;;;;;9.49;97.76;99472.84;3596828;39;14807;-53
2021/05/23 00:51:11;;;;;;;;;12.00;10.25;;;;;9.24;98.21;99474.28;3597293;39;14799;-52
2021/05/23 00:53:39;;;;;;;;;12.25;11.75;;;;;9.46;98.35;99471.22;3597038;39;14053;-52
2021/05/23 00:56:06;;;;;;;;;12.00;12.00;;;;;9.55;98.08;99480.50;3601825;39;14176;-53
2021/05/23 00:58:34;;;;;;;;;15.50;13.00;;;;;9.75;96.61;99482.84;3598782;39;10799;-52
2021/05/23 01:02:00;;;;;;;;;8.50;7.50;;;;;9.75;96.51;99490.88;3596460;39;14012;-53
2021/05/23 01:04:27;;;;;;;;;16.25;11.00;;;;;9.91;96.51;99497.97;3584113;39;14065;-54
2021/05/23 01:06:54;;;;;;;;;17.00;11.25;;;;;9.92;95.70;99491.66;3597442;39;14211;-56
2021/05/23 01:09:23;;;;;;;;;16.50;13.75;;;;;10.23;94.19;99488.78;3599076;39;14050;-51
2021/05/23 01:11:50;;;;;;;;;19.50;13.50;;;;;9.86;94.44;99490.22;3596189;39;14047;-53
2021/05/23 01:14:47;;;;;;;;;11.75;10.50;;;;;10.22;94.04;99504.97;3592745;39;14014;-53
2021/05/23 01:17:15;;;;;;;;;17.00;11.00;;;;;10.04;93.99;99498.94;3598438;39;13952;-53
2021/05/23 01:20:01;;;;;;;;;16.00;11.00;;;;;10.01;92.79;99500.00;3596626;39;14177;-52
2021/05/23 01:22:53;;;;;;;;;11.25;10.75;;;;;9.47;96.62;99510.44;3592327;39;13996;-54
2021/05/23 01:25:25;;;;;;;;;16.50;13.75;;;;;9.89;95.76;99516.84;3597544;39;14024;-54
2021/05/23 01:27:53;;;;;;;;;17.75;15.00;;;;;10.14;93.99;99529.59;3596330;39;13985;-54
2021/05/23 01:30:27;;;;;;;;;15.00;13.00;;;;;10.32;93.69;99520.44;3595580;39;10581;-51
2021/05/23 01:32:59;;;;;;;;;15.25;13.50;;;;;9.69;95.48;99515.41;3596397;39;14051;-54
2021/05/23 01:35:37;;;;;;;;;14.75;14.75;;;;;9.56;96.90;99509.06;3598261;39;14526;-54
2021/05/23 01:38:14;;;;;;;;;16.00;15.00;;;;;9.88;96.76;99510.63;3597815;39;14037;-55
2021/05/23 01:40:43;;;;;;;;;16.25;16.25;;;;;9.65;96.58;99506.66;3599200;39;14050;-52
2021/05/23 01:43:11;;;;;;;;;18.25;14.25;;;;;9.70;95.88;99508.22;3597165;39;14131;-54
2021/05/23 01:45:40;;;;;;;;;18.75;16.00;;;;;10.15;95.34;99517.06;3597491;39;11443;-53
2021/05/23 01:48:10;;;;;;;;;18.33;17.67;;;;;9.66;95.44;99507.50;3595649;39;10459;-52
2021/05/23 01:50:41;;;;;;;;;21.33;19.33;;;;;9.83;95.67;99502.00;3595685;40;10394;-54
2021/05/23 01:53:09;;;;;;;;;16.75;16.00;;;;;10.07;95.02;99515.69;3593700;40;11619;-53
2021/05/23 01:55:37;;;;;;;;;18.67;17.67;;;;;9.96;94.33;99518.19;3596244;39;10463;-53
2021/05/23 01:58:05;;;;;;;;;16.75;15.75;;;;;10.12;94.32;99534.19;3596549;39;10713;-52
2021/05/23 02:00:49;;;;;;;;;17.25;15.50;;;;;10.15;94.45;99528.63;3596170;39;14059;-50
2021/05/23 02:03:19;;;;;;;;;21.00;16.75;;;;;9.89;95.86;99528.41;3595595;39;10705;-52
2021/05/23 02:05:50;;;;;;;;;16.75;15.50;;;;;9.79;95.99;99527.25;3600778;39;14048;-54
2021/05/23 02:08:20;;;;;;;;;22.25;18.00;;;;;9.54;98.69;99524.34;3600020;39;14030;-53
2021/05/23 02:10:51;;;;;;;;;18.50;12.75;;;;;9.80;97.90;99523.63;3594752;40;10756;-54
2021/05/23 02:13:19;;;;;;;;;26.00;19.00;;;;;9.65;96.96;99527.25;3596489;39;10451;-53
2021/05/23 02:15:48;;;;;;;;;19.67;17.00;;;;;9.54;98.37;99525.22;3596834;39;10465;-52
2021/05/23 02:18:15;;;;;;;;;20.00;16.67;;;;;9.44;98.25;99516.84;3597064;39;14018;-53
2021/05/23 02:20:43;;;;;;;;;17.67;16.00;;;;;9.49;98.58;99518.41;3595533;40;10536;-54
2021/05/23 02:23:18;;;;;;;;;21.00;17.67;;;;;9.57;99.31;99524.16;3595093;40;10366;-54
2021/05/23 02:25:46;;;;;;;;;21.50;16.75;;;;;9.50;98.30;99520.97;3596564;39;10639;-53
2021/05/23 02:28:15;;;;;;;;;21.33;16.33;;;;;9.62;98.64;99530.13;3596327;39;10378;-54
2021/05/23 02:30:47;;;;;;;;;19.67;18.33;;;;;9.42;98.11;99534.81;3596009;39;10385;-53
2021/05/23 02:33:15;;;;;;;;;21.33;17.00;;;;;9.28;98.97;99521.41;3597697;39;10135;-54
2021/05/23 02:35:50;;;;;;;;;24.00;20.33;;;;;9.28;99.64;99524.06;3596441;39;10380;-55
2021/05/23 02:38:18;;;;;;;;;20.33;19.00;;;;;9.37;99.64;99518.19;3598179;39;10256;-54
2021/05/23 02:40:47;;;;;;;;;27.33;19.00;;;;;9.55;99.50;99534.97;3596065;40;10235;-54
2021/05/23 02:43:15;;;;;;;;;19.00;16.67;;;;;9.55;98.96;99537.66;3596374;39;10548;-55
2021/05/23 02:45:43;;;;;;;;;15.00;12.00;;;;;9.91;96.97;99530.16;3598217;39;10736;-55
2021/05/23 02:48:12;;;;;;;;;20.75;17.00;;;;;10.04;95.35;99533.81;3595830;40;10904;-54
2021/05/23 02:50:44;;;;;;;;;16.00;16.00;;;;;9.81;96.28;99540.59;3595930;39;14036;-54
2021/05/23 02:53:12;;;;;;;;;15.50;13.00;;;;;9.66;97.95;99534.31;3594500;40;10696;-53
2021/05/23 02:55:43;;;;;;;;;16.75;10.00;;;;;9.92;96.51;99532.72;3596313;39;10645;-54
2021/05/23 02:58:12;;;;;;;;;16.50;15.50;;;;;9.78;95.45;99530.91;3596573;39;10745;-53
2021/05/23 03:00:40;;;;;;;;;18.25;15.00;;;;;9.86;96.42;99533.97;3592844;40;11343;-54
2021/05/23 03:03:09;;;;;;;;;17.50;14.50;;;;;9.95;94.92;99537.91;3599576;39;10661;-54
2021/05/23 03:05:38;;;;;;;;;17.00;12.75;;;;;9.89;96.10;99536.47;3598389;39;14112;-51
2021/05/23 03:08:07;;;;;;;;;20.67;15.00;;;;;9.94;95.73;99540.69;3597792;39;10370;-54
2021/05/23 03:10:51;;;;;;;;;13.00;13.00;;;;;10.04;94.36;99536.50;3597664;39;10466;-54
2021/05/23 03:13:20;;;;;;;;;19.00;15.33;;;;;10.02;94.46;99541.09;3599714;39;10511;-54
2021/05/23 03:15:47;;;;;;;;;19.50;17.50;;;;;10.05;94.75;99548.94;3597988;39;10698;-55
2021/05/23 03:18:15;;;;;;;;;15.67;15.67;;;;;9.93;95.04;99555.09;3596917;40;10486;-54
2021/05/23 03:20:44;;;;;;;;;19.00;16.33;;;;;10.01;95.41;99550.09;3596633;40;10505;-53
2021/05/23 03:23:12;;;;;;;;;15.25;12.75;;;;;9.84;95.42;99560.00;3597622;40;10654;-54
2021/05/23 03:25:40;;;;;;;;;19.00;15.33;;;;;9.84;95.68;99551.97;3598369;39;14515;-53
2021/05/23 03:28:08;;;;;;;;;17.00;12.33;;;;;9.82;96.66;99559.28;3597279;40;10435;-54
2021/05/23 03:30:41;;;;;;;;;16.75;16.75;;;;;9.80;96.52;99560.31;3596591;39;10610;-53
2021/05/23 03:33:10;;;;;;;;;19.00;11.50;;;;;10.02;95.66;99560.72;3597505;40;14031;-53
2021/05/23 03:35:38;;;;;;;;;16.75;13.00;;;;;9.95;95.60;99566.56;3599121;39;14063;-54
2021/05/23 03:38:06;;;;;;;;;20.50;14.75;;;;;9.79;95.74;99572.84;3598107;39;14548;-50
2021/05/23 03:40:39;;;;;;;;;17.75;16.50;;;;;10.03;95.02;99561.56;3595546;40;14175;-54
2021/05/23 03:43:08;;;;;;;;;12.50;12.00;;;;;9.92;96.13;99577.47;3596441;39;14044;-52
2021/05/23 03:45:35;;;;;;;;;17.25;12.00;;;;;9.92;95.38;99577.47;3597816;39;14063;-52
2021/05/23 03:48:03;;;;;;;;;16.75;15.75;;;;;9.82;96.11;99580.72;3597375;39;14004;-50
2021/05/23 03:50:31;;;;;;;;;16.00;11.75;;;;;10.00;96.23;99572.50;3597107;39;14033;-51
2021/05/23 03:52:59;;;;;;;;;17.00;15.25;;;;;10.02;95.82;99574.13;3598417;39;14000;-54
2021/05/23 03:55:28;;;;;;;;;14.50;13.00;;;;;9.86;95.41;99576.88;3599249;39;14015;-52
2021/05/23 03:57:56;;;;;;;;;15.00;14.50;;;;;9.88;94.48;99588.38;3599828;39;14021;-51
2021/05/23 04:00:26;;;;;;;;;47.00;35.00;;;;;10.22;93.94;99593.53;3596941;39;14028;-52
2021/05/23 04:02:56;;;;;;;;;49.00;37.00;;;;;10.08;93.91;99586.31;3598765;39;9979;-53
2021/05/23 04:05:26;;;;;;;;;76.33;55.67;;;;;10.20;93.59;99580.19;3597370;39;10063;-54
2021/05/23 04:07:55;;;;;;;;;50.67;40.00;;;;;9.99;95.40;99578.84;3599928;39;9936;-53
2021/05/23 04:10:27;;;;;;;;;18.75;17.00;;;;;9.96;95.97;99582.56;3596624;39;10795;-54
2021/05/23 04:13:03;;;;;;;;;12.25;11.25;;;;;9.97;96.00;99583.41;3598295;39;14126;-53
2021/05/23 04:15:31;;;;;;;;;22.50;17.75;;;;;9.82;97.04;99578.03;3596173;40;13990;-53
2021/05/23 04:17:59;;;;;;;;;13.00;12.50;;;;;10.02;94.68;99575.97;3598983;39;11108;-50
2021/05/23 04:20:28;;;;;;;;;22.50;16.00;;;;;9.89;96.07;99576.69;3596698;39;14036;-54
2021/05/23 04:22:56;;;;;;;;;19.00;15.75;;;;;10.13;95.24;99576.16;3596267;40;10658;-54
2021/05/23 04:25:25;;;;;;;;;17.50;15.50;;;;;10.06;95.55;99572.16;3591529;40;14050;-54
2021/05/23 04:27:53;;;;;;;;;18.25;15.50;;;;;10.11;95.15;99578.94;3596969;39;14565;-53
2021/05/23 04:30:25;;;;;;;;;17.25;16.00;;;;;10.10;95.83;99581.72;3593989;39;14011;-53
2021/05/23 04:32:54;;;;;;;;;20.75;16.25;;;;;10.07;95.38;99587.28;3596542;39;14022;-53
2021/05/23 04:35:22;;;;;;;;;17.25;14.25;;;;;10.17;96.36;99583.06;3593108;40;14058;-55
2021/05/23 04:37:51;;;;;;;;;18.00;16.50;;;;;9.83;97.09;99582.44;3597032;39;14039;-54
2021/05/23 04:40:19;;;;;;;;;21.75;16.50;;;;;9.98;97.73;99582.44;3598472;39;14180;-52
2021/05/23 04:42:47;;;;;;;;;22.75;18.75;;;;;10.21;95.99;99581.91;3595901;39;14216;-53
2021/05/23 04:45:35;;;;;;;;;21.00;17.25;;;;;10.12;95.70;99587.84;3593180;40;14108;-52
2021/05/23 04:48:05;;;;;;;;;21.50;18.00;;;;;10.28;96.92;99588.66;3596797;39;14218;-53
2021/05/23 04:50:33;;;;;;;;;17.50;15.25;;;;;10.50;94.52;99588.16;3596682;40;14031;-50
2021/05/23 04:53:01;;;;;;;;;18.50;14.25;;;;;10.26;95.34;99595.91;3598428;39;14005;-52
2021/05/23 04:55:28;;;;;;;;;37.00;31.00;;;;;10.42;95.84;99600.34;3593622;39;14622;-53
2021/05/23 04:57:55;;;;;;;;;35.00;29.67;;;;;10.41;96.48;99598.66;3597457;39;10661;-49
2021/05/23 05:00:23;;;;;;;;;24.75;21.25;;;;;10.19;99.06;99602.63;3596375;39;10762;-50
2021/05/23 05:02:50;;;;;;;;;24.00;20.50;;;;;10.26;98.52;99601.28;3595819;40;14079;-50
2021/05/23 05:05:19;;;;;;;;;23.75;21.00;;;;;10.39;98.09;99595.19;3596679;39;10645;-53
2021/05/23 05:07:47;;;;;;;;;19.50;18.00;;;;;10.38;99.32;99588.97;3596080;39;14060;-53
2021/05/23 05:10:16;;;;;;;;;23.00;18.00;;;;;10.50;100.00;99587.31;3596188;39;14017;-49
2021/05/23 05:12:43;;;;;;;;;21.25;18.00;;;;;10.42;99.25;99590.47;3597532;39;14061;-53
2021/05/23 05:15:12;;;;;;;;;18.00;16.75;;;;;10.66;100.00;99589.91;3596760;39;14025;-50
2021/05/23 05:17:39;;;;;;;;;41.67;38.00;;;;;10.75;99.49;99587.50;3595629;39;14074;-52
2021/05/23 05:20:09;;;;;;;;;53.33;38.67;;;;;10.51;97.44;99581.00;3597611;39;10260;-52
2021/05/23 05:22:38;;;;;;;;;55.33;37.33;;;;;10.45;98.67;99578.69;3596189;39;9811;-52
2021/05/23 05:25:07;;;;;;;;;32.33;27.67;;;;;10.30;98.35;99575.16;3596870;39;10364;-50
2021/05/23 05:27:35;;;;;;;;;32.00;26.00;;;;;10.37;100.00;99578.31;3607056;39;10707;-49
2021/05/23 05:30:07;;;;;;;;;28.25;24.00;;;;;10.45;99.91;99576.00;3595658;40;10852;-51
2021/05/23 05:32:35;;;;;;;;;24.00;22.00;;;;;10.54;100.00;99583.50;3598353;39;14033;-49
2021/05/23 05:35:03;;;;;;;;;22.00;21.00;;;;;10.56;100.00;99584.25;3596476;39;10674;-51
2021/05/23 05:37:30;;;;;;;;;23.50;18.75;;;;;10.52;100.00;99585.41;3599302;39;14766;-52
2021/05/23 05:39:58;;;;;;;;;27.00;19.75;;;;;10.42;100.00;99598.53;3601910;39;14055;-50
2021/05/23 05:42:26;;;;;;;;;29.75;21.00;;;;;10.51;100.00;99607.84;3597110;39;14150;-52
2021/05/23 05:44:53;;;;;;;;;23.75;22.00;;;;;10.53;100.00;99608.59;3596947;39;14235;-53
2021/05/23 05:47:21;;;;;;;;;20.75;20.25;;;;;10.40;100.00;99596.91;3598119;39;14081;-51
2021/05/23 05:49:48;;;;;;;;;18.25;18.25;;;;;10.63;100.00;99592.78;3596266;40;14015;-53
2021/05/23 05:52:16;;;;;;;;;21.00;18.25;;;;;10.41;100.00;99604.00;3599396;39;14711;-52
2021/05/23 05:54:43;;;;;;;;;21.25;18.75;;;;;10.42;100.00;99597.69;3596360;39;14574;-52
2021/05/23 05:57:10;;;;;;;;;27.00;22.50;;;;;10.53;100.00;99604.13;3596556;39;14060;-51
2021/05/23 05:59:46;;;;;;;;;28.50;21.25;;;;;10.69;100.00;99606.69;3592307;40;14195;-51
2021/05/23 06:02:14;;;;;;;;;17.00;13.00;;;;;10.83;100.00;99604.94;3597845;39;14257;-52
2021/05/23 06:04:42;;;;;;;;;23.50;20.75;;;;;10.63;100.00;99609.75;3598981;39;14038;-53
2021/05/23 06:07:09;;;;;;;;;23.75;20.25;;;;;10.64;100.00;99603.44;3596079;39;14080;-53
2021/05/23 06:09:36;;;;;;;;;24.25;19.25;;;;;10.63;100.00;99601.69;3595501;39;14035;-51
2021/05/23 06:12:05;;;;;;;;;21.00;20.25;;;;;10.63;100.00;99599.00;3596078;39;14074;-55
2021/05/23 06:14:32;;;;;;;;;20.50;18.00;;;;;10.59;100.00;99613.59;3595944;39;14272;-53
2021/05/23 06:17:00;;;;;;;;;22.25;20.25;;;;;10.61;100.00;99614.38;3596268;39;14051;-54
2021/05/23 06:19:27;;;;;;;;;21.00;19.75;;;;;10.86;100.00;99618.19;3595845;39;14041;-55
2021/05/23 06:21:54;;;;;;;;;26.25;20.25;;;;;10.78;100.00;99615.97;3592490;40;14078;-54
2021/05/23 06:24:22;;;;;;;;;27.00;24.00;;;;;10.83;100.00;99610.31;3596375;39;14047;-54
2021/05/23 06:26:50;;;;;;;;;24.25;21.25;;;;;10.81;100.00;99609.56;3596165;39;14075;-53
2021/05/23 06:29:17;;;;;;;;;15.75;13.25;;;;;11.07;100.00;99602.50;3598403;39;14051;-52
2021/05/23 06:31:44;;;;;;;;;23.00;21.00;;;;;11.01;100.00;99593.03;3595982;39;14044;-53
2021/05/23 06:34:12;;;;;;;;;23.50;18.50;;;;;11.04;100.00;99592.81;3597123;39;14061;-51
2021/05/23 06:36:40;;;;;;;;;25.75;22.00;;;;;11.20;100.00;99590.84;3596484;39;14021;-52
2021/05/23 06:39:08;;;;;;;;;26.50;22.75;;;;;11.25;100.00;99595.06;3597625;39;14564;-53
2021/05/23 06:41:36;;;;;;;;;33.25;25.75;;;;;10.98;100.00;99582.47;3597240;39;14067;-55
2021/05/23 06:44:04;;;;;;;;;27.25;25.50;;;;;11.14;100.00;99579.66;3597848;39;14080;-52
2021/05/23 06:46:32;;;;;;;;;24.50;24.00;;;;;11.16;100.00;99583.97;3597845;39;14534;-55
2021/05/23 06:48:59;;;;;;;;;31.50;24.50;;;;;11.26;100.00;99592.25;3600951;39;14052;-53
2021/05/23 06:51:26;;;;;;;;;26.00;23.25;;;;;11.17;100.00;99593.75;3597681;39;14067;-61
2021/05/23 06:53:54;;;;;;;;;32.75;25.75;;;;;11.16;100.00;99589.34;3597073;39;14291;-61
2021/05/23 06:56:21;;;;;;;;;24.75;19.00;;;;;11.15;100.00;99579.53;3598013;39;14639;-61
2021/05/23 06:58:49;;;;;;;;;26.50;23.50;;;;;11.15;100.00;99589.44;3597866;39;10598;-61
2021/05/23 07:01:16;;;;;;;;;25.75;23.75;;;;;11.24;100.00;99590.63;3597563;39;14083;-61
2021/05/23 07:03:43;;;;;;;;;26.00;23.50;;;;;11.19;100.00;99591.81;3597649;40;14090;-61
2021/05/23 07:06:11;;;;;;;;;28.75;22.75;;;;;11.39;100.00;99606.63;3597278;40;14606;-61
2021/05/23 07:08:38;;;;;;;;;26.00;22.25;;;;;11.33;100.00;99608.88;3597807;39;14080;-61
2021/05/23 07:11:05;;;;;;;;;31.50;25.00;;;;;11.23;100.00;99615.81;3593408;40;14230;-61
2021/05/23 07:13:33;;;;;;;;;30.75;25.50;;;;;11.42;100.00;99592.09;3597298;39;14635;-62
2021/05/23 07:16:00;;;;;;;;;36.25;29.00;;;;;11.29;100.00;99591.19;3597192;40;14029;-62
2021/05/23 07:18:27;;;;;;;;;34.25;26.25;;;;;11.48;100.00;99585.44;3596917;39;14062;-62
2021/05/23 07:20:59;;;;;;;;;40.50;29.75;;;;;11.71;100.00;99610.81;3597482;39;14145;-61
2021/05/23 07:23:28;;;;;;;;;28.25;24.75;;;;;11.55;100.00;99609.13;3597473;39;14086;-61
2021/05/23 07:25:56;;;;;;;;;30.00;24.25;;;;;11.49;100.00;99587.19;3596449;40;14087;-62
2021/05/23 07:28:25;;;;;;;;;35.00;25.50;;;;;11.73;100.00;99585.53;3597474;39;14285;-62
2021/05/23 07:30:52;;;;;;;;;30.50;26.25;;;;;11.50;100.00;99591.59;3596195;40;14135;-61
2021/05/23 07:33:20;;;;;;;;;29.75;24.25;;;;;11.61;100.00;99592.63;3604863;39;14081;-61
2021/05/23 07:35:47;;;;;;;;;30.75;27.75;;;;;11.45;100.00;99591.03;3596208;40;14063;-61
2021/05/23 07:38:15;;;;;;;;;29.25;24.00;;;;;11.59;100.00;99577.56;3596875;39;14051;-61
2021/05/23 07:40:42;;;;;;;;;30.50;29.00;;;;;11.54;100.00;99598.50;3597339;39;14046;-61
2021/05/23 07:43:10;;;;;;;;;33.00;30.00;;;;;11.69;100.00;99596.59;3597093;39;14041;-61
2021/05/23 07:45:38;;;;;;;;;34.00;26.00;;;;;11.76;100.00;99597.91;3597504;39;14064;-61
2021/05/23 07:48:06;;;;;;;;;30.50;26.00;;;;;11.77;100.00;99607.69;3596083;39;14134;-61
2021/05/23 07:50:34;;;;;;;;;32.25;28.00;;;;;11.94;100.00;99615.53;3596715;39;14069;-62
2021/05/23 07:53:02;;;;;;;;;33.00;28.50;;;;;12.04;100.00;99616.63;3599600;39;14054;-61
2021/05/23 07:55:30;;;;;;;;;28.00;25.00;;;;;12.06;100.00;99617.38;3597991;39;14237;-61
2021/05/23 07:57:57;;;;;;;;;30.00;26.00;;;;;11.98;100.00;99616.16;3598682;39;14048;-61
2021/05/23 08:00:25;;;;;;;;;25.75;23.75;;;;;12.05;100.00;99612.94;3597230;39;14033;-61
2021/05/23 08:02:57;;;;;;;;;25.50;22.25;;;;;12.15;100.00;99606.94;3598494;39;14253;-61
2021/05/23 08:05:27;;;;;;;;;31.25;24.00;;;;;12.40;100.00;99622.22;3598290;39;14059;-61
2021/05/23 08:07:55;;;;;;;;;29.00;26.00;;;;;12.06;100.00;99617.38;3598340;39;14056;-61
2021/05/23 08:10:24;;;;;;;;;32.25;26.75;;;;;12.34;100.00;99615.44;3595852;39;14331;-61
2021/05/23 08:12:51;;;;;;;;;26.25;20.75;;;;;12.21;100.00;99617.28;3599272;39;14056;-60
2021/05/23 08:15:19;;;;;;;;;27.00;22.50;;;;;12.15;100.00;99607.78;3595814;39;14028;-60
2021/05/23 08:17:47;;;;;;;;;26.00;23.25;;;;;12.17;100.00;99600.50;3597179;39;14607;-61
2021/05/23 08:20:16;;;;;;;;;36.00;30.75;;;;;12.24;100.00;99595.53;3596386;39;14072;-60
2021/05/23 08:22:43;;;;;;;;;31.75;25.50;;;;;12.25;100.00;99602.66;3596194;40;14044;-61
2021/05/23 08:25:12;;;;;;;;;27.50;27.25;;;;;12.58;100.00;99604.78;3596071;39;14043;-61
2021/05/23 08:27:40;;;;;;;;;30.00;24.25;;;;;12.44;100.00;99603.06;3594796;40;14053;-61
2021/05/23 08:30:12;;;;;;;;;33.00;29.50;;;;;12.51;100.00;99600.81;3593393;39;14718;-61
2021/05/23 08:32:40;;;;;;;;;26.00;22.00;;;;;12.57;100.00;99603.06;3596620;39;14250;-61
2021/05/23 08:35:11;;;;;;;;;26.75;21.50;;;;;12.41;100.00;99602.44;3595614;40;14021;-61
2021/05/23 08:37:39;;;;;;;;;24.00;23.00;;;;;12.65;100.00;99602.50;3603443;39;14026;-60
2021/05/23 08:40:07;;;;;;;;;27.50;24.25;;;;;12.60;100.00;99591.22;3596091;40;14057;-61
2021/05/23 08:42:38;;;;;;;;;27.75;22.75;;;;;12.77;100.00;99603.44;3596041;40;14105;-61
2021/05/23 08:45:07;;;;;;;;;28.25;23.75;;;;;12.71;100.00;99599.38;3603490;39;14052;-61
2021/05/23 08:47:45;;;;;;;;;24.25;22.00;;;;;12.93;100.00;99582.53;3595671;39;14095;-61
2021/05/23 08:50:17;;;;;;;;;25.50;25.50;;;;;13.02;100.00;99581.84;3595727;40;14125;-61
2021/05/23 08:52:45;;;;;;;;;26.75;23.25;;;;;13.05;100.00;99591.53;3595912;40;14064;-61
2021/05/23 08:55:15;;;;;;;;;28.25;24.00;;;;;12.91;100.00;99590.72;3594818;39;14034;-61
2021/05/23 08:57:42;;;;;;;;;25.00;22.25;;;;;13.20;100.00;99584.16;3595494;39;14043;-61
2021/05/23 09:00:11;;;;;;;;;20.00;20.00;;;;;12.90;100.00;99583.63;3591482;40;13987;-61
2021/05/23 09:02:59;;;;;;;;;21.50;16.25;;;;;13.24;100.00;99589.19;3596010;39;14061;-60
2021/05/23 09:05:42;;;;;;;;;23.00;20.25;;;;;13.30;100.00;99587.94;3594925;40;14048;-61
2021/05/23 09:08:16;;;;;;;;;25.75;23.50;;;;;13.32;100.00;99577.88;3595884;40;14085;-60
2021/05/23 09:10:46;;;;;;;;;23.75;22.00;;;;;13.21;100.00;99570.56;3596010;39;14165;-60
2021/05/23 09:13:28;;;;;;;;;22.00;18.00;;;;;13.35;100.00;99572.28;3596088;39;14044;-60
2021/05/23 09:16:10;;;;;;;;;29.50;24.25;;;;;13.56;100.00;99564.38;3594776;40;14062;-60
2021/05/23 09:18:45;;;;;;;;;23.25;21.00;;;;;13.44;100.00;99559.94;3594388;40;15222;-61
2021/05/23 09:21:34;;;;;;;;;21.25;18.50;;;;;13.84;100.00;99558.59;3590321;40;14057;-61
2021/05/23 09:24:08;;;;;;;;;56.25;40.50;;;;;14.03;100.00;99546.34;3597006;39;14021;-61
2021/05/23 09:26:43;;;;;;;;;25.50;22.75;;;;;13.83;100.00;99556.03;3594636;40;14263;-61
2021/05/23 09:29:21;;;;;;;;;52.25;38.50;;;;;13.88;100.00;99561.06;3596140;39;14020;-60
2021/05/23 09:32:06;;;;;;;;;29.25;25.25;;;;;13.81;100.00;99553.44;3596688;39;14573;-61
2021/05/23 09:34:34;;;;;;;;;32.50;27.00;;;;;13.61;100.00;99556.78;3596347;39;14045;-60
2021/05/23 09:37:01;;;;;;;;;35.50;28.75;;;;;13.82;100.00;99563.28;3596352;40;14023;-61
2021/05/23 09:39:39;;;;;;;;;31.50;25.00;;;;;13.43;100.00;99560.88;3595450;40;14242;-60
2021/05/23 09:42:15;;;;;;;;;32.50;27.25;;;;;13.67;100.00;99567.13;3594341;40;14036;-61
2021/05/23 09:44:42;;;;;;;;;33.25;27.25;;;;;13.82;100.00;99568.66;3603464;39;14549;-61
2021/05/23 09:47:13;;;;;;;;;30.50;29.50;;;;;13.60;100.00;99571.28;3596290;39;14050;-61
2021/05/23 09:49:46;;;;;;;;;33.50;27.50;;;;;13.76;100.00;99571.81;3596178;39;14794;-60
2021/05/23 09:52:17;;;;;;;;;35.50;32.50;;;;;13.71;100.00;99557.81;3596568;39;14057;-60
2021/05/23 09:54:48;;;;;;;;;36.75;31.00;;;;;13.87;100.00;99562.03;3596318;39;14031;-60
2021/05/23 09:57:22;;;;;;;;;36.50;33.25;;;;;13.91;100.00;99569.78;3596844;40;14061;-61
2021/05/23 10:00:09;;;;;;;;;40.50;33.25;;;;;13.79;100.00;99576.97;3596043;40;14058;-61
2021/05/23 10:02:57;;;;;;;;;35.00;32.50;;;;;13.84;100.00;99553.19;3596096;39;14077;-60
2021/05/23 10:05:27;;;;;;;;;31.50;29.25;;;;;13.86;100.00;99550.38;3601171;39;14029;-61
2021/05/23 10:07:54;;;;;;;;;26.00;25.50;;;;;14.05;100.00;99539.88;3598744;39;14198;-61
2021/05/23 10:10:22;;;;;;;;;41.75;35.00;;;;;14.04;100.00;99542.69;3596783;40;14042;-60
2021/05/23 10:12:49;;;;;;;;;35.50;33.50;;;;;14.02;100.00;99529.31;3597746;40;14074;-60
2021/05/23 10:15:16;;;;;;;;;33.00;28.50;;;;;13.98;100.00;99510.78;3597320;39;14546;-60
2021/05/23 10:17:56;;;;;;;;;28.00;25.00;;;;;13.94;100.00;99503.91;3597931;40;14057;-61
2021/05/23 10:20:27;;;;;;;;;25.00;25.00;;;;;14.19;100.00;99498.31;3596921;40;14072;-62
2021/05/23 10:22:58;;;;;;;;;23.75;23.75;;;;;14.09;100.00;99489.22;3596784;40;14044;-62
2021/05/23 10:25:27;;;;;;;;;23.25;22.00;;;;;13.83;100.00;99508.31;3593103;40;14044;-61
2021/05/23 10:27:59;;;;;;;;;27.00;22.00;;;;;13.79;100.00;99512.19;3596706;40;14029;-62
2021/05/23 10:30:26;;;;;;;;;23.75;20.50;;;;;13.69;100.00;99527.41;3595794;40;14106;-61
2021/05/23 10:32:53;;;;;;;;;22.50;21.00;;;;;13.56;100.00;99548.19;3596732;40;14556;-61
2021/05/23 10:35:33;;;;;;;;;23.50;23.00;;;;;13.71;100.00;99552.41;3597311;39;14232;-62
2021/05/23 10:38:11;;;;;;;;;25.00;18.75;;;;;13.66;100.00;99553.75;3597668;40;14083;-62
2021/05/23 10:40:54;;;;;;;;;24.00;20.25;;;;;13.65;100.00;99547.50;3593381;40;14146;-61
2021/05/23 10:43:34;;;;;;;;;20.25;18.00;;;;;13.51;100.00;99545.00;3597517;39;14117;-62
2021/05/23 10:46:10;;;;;;;;;22.75;19.00;;;;;13.47;100.00;99538.13;3597507;39;14031;-63
2021/05/23 10:48:38;;;;;;;;;21.50;21.00;;;;;13.59;100.00;99547.97;3597385;39;14253;-63
2021/05/23 10:51:32;;;;;;;;;41.00;36.50;;;;;13.66;100.00;99540.25;3597672;40;14046;-63
2021/05/23 10:54:00;;;;;;;;;50.00;38.00;;;;;13.68;100.00;99531.06;3597252;40;14125;-64
2021/05/23 10:56:30;;;;;;;;;51.50;42.25;;;;;13.68;100.00;99532.91;3597718;40;14038;-63
2021/05/23 10:59:00;;;;;;;;;38.00;34.75;;;;;13.66;100.00;99527.63;3593959;40;10298;-63
2021/05/23 11:01:47;;;;;;;;;37.75;32.75;;;;;13.67;100.00;99536.59;3597176;39;14218;-63
2021/05/23 11:04:21;;;;;;;;;53.75;41.00;;;;;13.69;100.00;99531.94;3595979;40;14037;-64
2021/05/23 11:06:50;;;;;;;;;25.25;23.25;;;;;13.61;100.00;99535.22;3604813;39;14076;-63
2021/05/23 11:09:20;;;;;;;;;22.75;19.25;;;;;13.39;100.00;99515.28;3597590;39;14042;-62
2021/05/23 11:11:48;;;;;;;;;21.00;20.75;;;;;13.35;100.00;99497.63;3597386;39;14030;-63
2021/05/23 11:14:23;;;;;;;;;26.25;23.75;;;;;13.59;100.00;99499.44;3597235;40;14049;-63
2021/05/23 11:16:55;;;;;;;;;26.50;22.75;;;;;13.55;100.00;99503.31;3597664;39;14037;-63
2021/05/23 11:19:26;;;;;;;;;20.25;19.00;;;;;13.42;100.00;99502.53;3595925;39;14271;-62
2021/05/23 11:21:54;;;;;;;;;20.75;18.25;;;;;13.44;100.00;99500.59;3597361;40;14022;-63
2021/05/23 11:24:32;;;;;;;;;22.00;18.00;;;;;13.41;100.00;99493.59;3596515;40;14165;-62
2021/05/23 11:27:16;;;;;;;;;25.00;23.00;;;;;13.57;100.00;99477.09;3597280;40;14226;-62
2021/05/23 11:29:54;;;;;;;;;21.75;21.00;;;;;13.56;100.00;99473.53;3597186;39;14025;-63